Terminal Aerodrome Forecast
Issued by NWS

Home | Current Version | Previous Version | Text Only | Print | Product List | Glossary On
Versions: 1 2 3 4 5 6 7 8 9 10 11 12 13 14 15 16 17 18 19 20 21 22
374
FTUS41 KRLX 101727
TAFCKB
TAF
KCKB 101727Z 1018/1118 26008KT P6SM BKN025
     FM102100 00000KT P6SM SCT035
     FM111700 16006KT P6SM OVC070=

USA.gov is the U.S. government's official web portal to all federal, state and local government web resources and services.